createdAt,value
2019-04-16T00:01:59.251Z,3.70
2019-04-16T00:04:35.311Z,3.60
2019-04-16T00:07:21.823Z,3.60
2019-04-16T00:10:08.173Z,3.50
2019-04-16T00:12:56.308Z,3.50
2019-04-16T00:15:25.330Z,3.50
2019-04-16T00:17:53.916Z,3.50
2019-04-16T00:20:22.426Z,3.60
2019-04-16T00:22:55.357Z,3.50
2019-04-16T00:25:23.915Z,3.50
2019-04-16T00:27:52.476Z,3.50
2019-04-16T00:30:21.042Z,3.50
2019-04-16T00:32:49.503Z,3.50
2019-04-16T00:35:18.064Z,3.40
2019-04-16T00:37:51.322Z,3.50
2019-04-16T00:40:16.843Z,3.40
2019-04-16T00:42:45.328Z,3.40
2019-04-16T00:45:14.569Z,3.30
2019-04-16T00:47:43.146Z,3.30
2019-04-16T00:50:12.155Z,3.20
2019-04-16T00:52:40.656Z,3.20
2019-04-16T00:55:13.715Z,3.20
2019-04-16T00:57:40.243Z,3.20
2019-04-16T01:00:10.393Z,3.10
2019-04-16T01:02:38.953Z,3.10
2019-04-16T01:05:07.979Z,3.10
2019-04-16T01:07:36.524Z,3.10
2019-04-16T01:10:05.828Z,3.10
2019-04-16T01:12:34.493Z,3.10
2019-04-16T01:15:03.854Z,3.10
2019-04-16T01:17:33.360Z,3.00
2019-04-16T01:20:03.365Z,3.00
2019-04-16T01:22:31.980Z,2.90
2019-04-16T01:25:00.478Z,3.00
2019-04-16T01:27:36.962Z,3.00
2019-04-16T01:30:07.936Z,2.90
2019-04-16T01:32:42.719Z,2.90
2019-04-16T01:35:18.686Z,2.90
2019-04-16T01:37:56.778Z,2.90
2019-04-16T01:40:27.664Z,2.90
2019-04-16T01:42:56.255Z,2.90
2019-04-16T01:45:29.590Z,2.90
2019-04-16T01:47:55.069Z,3.00
2019-04-16T01:50:23.632Z,2.90
2019-04-16T01:52:52.236Z,2.90
2019-04-16T01:55:25.539Z,2.90
2019-04-16T01:57:51.067Z,2.90
2019-04-16T02:00:19.897Z,2.90
2019-04-16T02:02:48.452Z,2.90
2019-04-16T02:05:17.089Z,2.90
2019-04-16T02:07:45.726Z,2.90
2019-04-16T02:10:14.588Z,2.90
2019-04-16T02:12:43.911Z,3.00
2019-04-16T02:15:14.031Z,3.00
2019-04-16T02:17:42.575Z,2.90
2019-04-16T02:20:11.678Z,2.90
2019-04-16T02:22:42.346Z,3.00
2019-04-16T02:25:10.702Z,2.90
2019-04-16T02:27:39.231Z,3.00
2019-04-16T02:30:07.966Z,3.00
2019-04-16T02:32:36.541Z,2.90
2019-04-16T02:35:06.863Z,2.90
2019-04-16T02:37:37.291Z,2.80
2019-04-16T02:40:06.924Z,2.80
2019-04-16T02:42:35.479Z,2.80
2019-04-16T02:45:04.761Z,2.70
2019-04-16T02:47:39.971Z,2.70
2019-04-16T02:50:06.068Z,2.70
2019-04-16T02:52:39.087Z,2.60
2019-04-16T02:55:27.557Z,2.60
2019-04-16T02:58:13.972Z,2.50
2019-04-16T03:00:55.998Z,2.40
2019-04-16T03:03:35.112Z,2.40
2019-04-16T03:06:03.648Z,2.40
2019-04-16T03:08:33.409Z,2.30
2019-04-16T03:11:03.194Z,2.30
2019-04-16T03:13:31.750Z,2.50
2019-04-16T03:16:18.654Z,2.40
2019-04-16T03:18:54.707Z,2.30
2019-04-16T03:21:24.555Z,2.40
2019-04-16T03:23:53.425Z,2.40
2019-04-16T03:26:21.999Z,2.40
2019-04-16T03:28:50.588Z,2.30
2019-04-16T03:31:23.237Z,2.30
2019-04-16T03:33:50.973Z,2.30
2019-04-16T03:36:19.969Z,2.20
2019-04-16T03:38:48.537Z,2.30
2019-04-16T03:41:17.079Z,2.30
2019-04-16T03:43:45.688Z,2.30
2019-04-16T03:46:14.523Z,2.30
2019-04-16T03:48:43.193Z,2.40
2019-04-16T03:51:11.756Z,2.30
2019-04-16T03:53:40.283Z,2.40
2019-04-16T03:56:08.820Z,2.40
2019-04-16T03:58:38.516Z,2.40
2019-04-16T04:01:07.655Z,2.30
2019-04-16T04:03:36.283Z,2.40
2019-04-16T04:06:06.878Z,2.40
2019-04-16T04:08:35.006Z,2.40
2019-04-16T04:11:09.073Z,2.40
2019-04-16T04:13:34.005Z,2.40
2019-04-16T04:16:02.577Z,2.50
2019-04-16T04:18:31.136Z,2.50
2019-04-16T04:20:59.742Z,2.50
2019-04-16T04:23:29.298Z,2.50
2019-04-16T04:25:57.931Z,2.50
2019-04-16T04:28:26.649Z,2.50
2019-04-16T04:30:57.638Z,2.40
2019-04-16T04:33:41.350Z,2.40
2019-04-16T04:36:10.281Z,2.30
2019-04-16T04:38:39.780Z,2.30
2019-04-16T04:41:08.531Z,2.30
2019-04-16T04:43:37.235Z,2.40
2019-04-16T04:46:05.912Z,2.40
2019-04-16T04:48:34.535Z,2.50
2019-04-16T04:51:06.631Z,2.70
2019-04-16T04:53:33.239Z,2.80
2019-04-16T04:56:01.794Z,2.90
2019-04-16T04:58:33.778Z,2.90
2019-04-16T05:01:00.620Z,3.00
2019-04-16T05:03:36.576Z,3.10
2019-04-16T05:06:06.984Z,3.10
2019-04-16T05:08:35.482Z,3.20
2019-04-16T05:11:04.038Z,3.30
2019-04-16T05:13:32.604Z,3.30
2019-04-16T05:16:01.800Z,3.40
2019-04-16T05:18:31.411Z,3.40
2019-04-16T05:20:59.958Z,3.50
2019-04-16T05:23:28.470Z,3.60
2019-04-16T05:25:57.065Z,3.70
2019-04-16T05:28:25.604Z,3.80
2019-04-16T05:30:54.071Z,3.90
2019-04-16T05:33:22.589Z,4.00
2019-04-16T05:35:51.136Z,4.10
2019-04-16T05:38:20.432Z,4.20
2019-04-16T05:40:49.924Z,4.30
2019-04-16T05:43:18.392Z,4.40
2019-04-16T05:45:46.958Z,4.60
2019-04-16T05:48:15.543Z,4.70
2019-04-16T05:50:44.313Z,4.90
2019-04-16T05:53:13.630Z,5.00
2019-04-16T05:55:44.031Z,5.10
2019-04-16T05:58:12.766Z,5.30
2019-04-16T06:00:45.769Z,5.50
2019-04-16T06:03:14.747Z,5.60
2019-04-16T06:05:43.271Z,5.80
2019-04-16T06:08:11.908Z,6.00
2019-04-16T06:10:41.033Z,6.10
2019-04-16T06:13:12.624Z,6.30
2019-04-16T06:16:00.911Z,6.40
2019-04-16T06:18:31.119Z,6.60
2019-04-16T06:21:17.524Z,6.70
2019-04-16T06:23:53.810Z,6.90
2019-04-16T06:26:39.050Z,7.00
2019-04-16T06:29:14.837Z,7.20
2019-04-16T06:31:45.063Z,7.40
2019-04-16T06:34:31.660Z,7.60
2019-04-16T06:37:01.896Z,7.80
2019-04-16T06:39:32.108Z,8.10
2019-04-16T06:42:02.272Z,8.40
2019-04-16T06:44:34.890Z,8.80
2019-04-16T06:47:03.184Z,9.10
2019-04-16T06:49:39.428Z,9.50
2019-04-16T06:52:24.479Z,9.80
2019-04-16T06:54:57.252Z,10.20
2019-04-16T06:57:43.866Z,10.60
2019-04-16T07:00:14.362Z,11.00
2019-04-16T07:03:02.697Z,11.60
2019-04-16T07:05:33.928Z,12.10
2019-04-16T07:08:09.703Z,12.60
2019-04-16T07:10:48.679Z,13.10
2019-04-16T07:13:17.224Z,13.70
2019-04-16T07:15:45.998Z,14.60
2019-04-16T07:18:14.507Z,15.50
2019-04-16T07:20:45.711Z,16.40
2019-04-16T07:23:13.268Z,17.50
2019-04-16T07:25:43.582Z,18.40
2019-04-16T07:28:19.633Z,19.30
2019-04-16T07:31:06.079Z,20.10
2019-04-16T07:33:42.163Z,21.20
2019-04-16T07:36:30.477Z,21.80
2019-04-16T07:39:09.575Z,22.40
2019-04-16T07:42:09.445Z,23.00
2019-04-16T07:44:45.781Z,23.70
2019-04-16T07:47:33.570Z,24.60
2019-04-16T07:50:14.779Z,25.10
2019-04-16T07:52:51.223Z,25.30
2019-04-16T07:55:23.665Z,25.10
2019-04-16T07:57:51.560Z,25.30
2019-04-16T08:00:20.300Z,25.70
2019-04-16T08:02:50.781Z,25.90
2019-04-16T08:05:19.067Z,26.50
2019-04-16T08:07:49.823Z,26.50
2019-04-16T08:10:18.296Z,26.70
2019-04-16T08:12:48.413Z,27.30
2019-04-16T08:15:17.231Z,27.50
2019-04-16T08:17:45.794Z,27.50
2019-04-16T08:20:14.393Z,27.00
2019-04-16T08:22:47.276Z,26.60
2019-04-16T08:25:13.171Z,25.80
2019-04-16T08:27:41.636Z,25.10
2019-04-16T08:30:12.259Z,24.40
2019-04-16T08:32:40.824Z,23.60
2019-04-16T08:35:09.756Z,22.90
2019-04-16T08:37:48.913Z,22.60
2019-04-16T08:40:12.536Z,23.30
2019-04-16T08:42:44.569Z,24.20
2019-04-16T08:45:09.965Z,25.00
2019-04-16T08:47:38.535Z,25.60
2019-04-16T08:50:07.703Z,26.30
2019-04-16T08:52:38.546Z,27.20
2019-04-16T08:55:06.697Z,27.50
2019-04-16T08:57:35.225Z,27.80
2019-04-16T09:00:08.643Z,28.10
2019-04-16T09:02:38.813Z,28.30
2019-04-16T09:05:11.127Z,28.70
2019-04-16T09:07:41.270Z,28.60
2019-04-16T09:10:18.895Z,28.00
2019-04-16T09:12:47.622Z,27.50
2019-04-16T09:15:16.623Z,26.50
2019-04-16T09:17:46.727Z,25.90
2019-04-16T09:20:16.899Z,25.90
2019-04-16T09:22:49.355Z,26.30
2019-04-16T09:25:17.243Z,26.70
2019-04-16T09:27:47.437Z,26.70
2019-04-16T09:30:18.197Z,27.10
2019-04-16T09:32:51.178Z,26.80
2019-04-16T09:35:24.091Z,26.70
2019-04-16T09:37:53.449Z,26.80
2019-04-16T09:40:23.655Z,26.70
2019-04-16T09:42:52.258Z,26.40
2019-04-16T09:45:20.902Z,26.40
2019-04-16T09:47:49.425Z,26.40
2019-04-16T09:50:18.843Z,25.70
2019-04-16T09:52:47.303Z,24.90
2019-04-16T09:55:18.877Z,23.80
2019-04-16T09:57:46.030Z,23.10
2019-04-16T10:00:20.214Z,22.00
2019-04-16T10:02:46.876Z,21.00
2019-04-16T10:05:15.590Z,19.50
2019-04-16T10:07:44.170Z,18.50
2019-04-16T10:10:12.873Z,17.80
2019-04-16T10:12:41.489Z,17.10
2019-04-16T10:15:11.001Z,16.50
2019-04-16T10:17:39.562Z,16.00
2019-04-16T10:20:08.320Z,15.40
2019-04-16T10:22:36.945Z,15.00
2019-04-16T10:25:08.622Z,14.70
2019-04-16T10:27:41.494Z,14.40
2019-04-16T10:30:18.914Z,14.20
2019-04-16T10:32:48.038Z,14.10
2019-04-16T10:35:17.366Z,13.80
2019-04-16T10:37:46.091Z,13.70
2019-04-16T10:40:31.221Z,13.60
2019-04-16T10:43:17.721Z,13.50
2019-04-16T10:46:08.253Z,13.40
2019-04-16T10:48:38.210Z,13.40
2019-04-16T10:51:08.443Z,13.60
2019-04-16T10:53:44.485Z,13.70
2019-04-16T10:56:14.711Z,13.90
2019-04-16T10:58:47.723Z,14.00
2019-04-16T11:01:36.167Z,14.00
2019-04-16T11:04:15.185Z,13.80
2019-04-16T11:06:45.402Z,13.80
2019-04-16T11:09:14.053Z,13.60
2019-04-16T11:11:42.673Z,13.60
2019-04-16T11:14:11.275Z,13.50
2019-04-16T11:16:41.457Z,13.50
2019-04-16T11:19:10.029Z,13.70
2019-04-16T11:21:38.949Z,13.90
2019-04-16T11:24:07.484Z,14.00
2019-04-16T11:26:36.057Z,14.10
2019-04-16T11:29:05.620Z,14.20
2019-04-16T11:31:34.132Z,14.30
2019-04-16T11:34:04.455Z,14.10
2019-04-16T11:36:32.985Z,14.00
2019-04-16T11:39:02.554Z,13.90
2019-04-16T11:41:31.219Z,13.90
2019-04-16T11:44:14.164Z,13.90
2019-04-16T11:46:30.169Z,13.80
2019-04-16T11:48:58.675Z,13.50
2019-04-16T11:51:27.276Z,13.10
2019-04-16T11:53:55.823Z,12.80
2019-04-16T11:56:24.418Z,12.50
2019-04-16T11:58:53.150Z,12.30
2019-04-16T12:01:32.219Z,12.00
2019-04-16T12:04:18.620Z,11.90
2019-04-16T12:06:51.761Z,11.80
2019-04-16T12:09:38.197Z,11.60
2019-04-16T12:12:11.197Z,11.40
2019-04-16T12:14:42.483Z,11.10
2019-04-16T12:17:13.332Z,11.00
2019-04-16T12:19:46.342Z,10.80
2019-04-16T12:22:28.508Z,10.70
2019-04-16T12:25:13.758Z,10.50
2019-04-16T12:27:49.897Z,10.40
2019-04-16T12:30:32.346Z,10.20
2019-04-16T12:33:07.726Z,10.10
2019-04-16T12:35:37.072Z,9.90
2019-04-16T12:38:13.248Z,9.80
2019-04-16T12:40:45.136Z,9.70
2019-04-16T12:43:31.707Z,9.60
2019-04-16T12:46:07.587Z,9.50
2019-04-16T12:48:37.752Z,9.40
2019-04-16T12:51:19.858Z,9.30
2019-04-16T12:53:55.758Z,9.20
2019-04-16T12:56:42.043Z,9.20
2019-04-16T12:59:12.451Z,9.20
2019-04-16T13:02:00.706Z,9.20
2019-04-16T13:04:45.767Z,9.20
2019-04-16T13:07:26.639Z,9.20
2019-04-16T13:09:59.571Z,9.20
2019-04-16T13:12:32.706Z,9.20
2019-04-16T13:15:07.746Z,9.20
2019-04-16T13:17:54.384Z,9.20
2019-04-16T13:20:33.688Z,9.00
2019-04-16T13:23:20.192Z,9.00
2019-04-16T13:26:02.432Z,8.80
2019-04-16T13:28:31.117Z,8.70
2019-04-16T13:30:59.996Z,8.70
2019-04-16T13:33:28.564Z,8.60
2019-04-16T13:35:57.112Z,8.50
2019-04-16T13:38:45.646Z,8.50
2019-04-16T13:41:14.211Z,8.50
2019-04-16T13:43:59.280Z,8.30
2019-04-16T13:46:29.522Z,8.30
2019-04-16T13:49:02.446Z,8.30
2019-04-16T13:51:35.491Z,8.20
2019-04-16T13:54:22.857Z,8.20
2019-04-16T13:57:09.115Z,8.10
2019-04-16T13:59:54.508Z,8.00
2019-04-16T14:02:33.883Z,7.90
2019-04-16T14:05:04.923Z,7.80
2019-04-16T14:07:33.148Z,7.70
2019-04-16T14:10:01.804Z,7.70
2019-04-16T14:12:41.801Z,7.60
2019-04-16T14:15:00.648Z,7.60
2019-04-16T14:17:29.505Z,7.50
2019-04-16T14:19:58.115Z,7.50
2019-04-16T14:22:26.702Z,7.40
2019-04-16T14:24:55.291Z,7.30
2019-04-16T14:27:23.967Z,7.30
2019-04-16T14:29:52.521Z,7.30
2019-04-16T14:32:21.112Z,7.30
2019-04-16T14:34:54.028Z,7.20
2019-04-16T14:37:22.983Z,7.20
2019-04-16T14:39:53.233Z,7.30
2019-04-16T14:42:23.039Z,7.30
2019-04-16T14:44:56.417Z,7.40
2019-04-16T14:47:25.026Z,7.40
2019-04-16T14:49:53.579Z,7.50
2019-04-16T14:52:22.205Z,7.50
2019-04-16T14:54:52.452Z,7.50
2019-04-16T14:57:21.034Z,7.50
2019-04-16T14:59:53.769Z,7.60
2019-04-16T15:02:29.965Z,7.60
2019-04-16T15:05:02.991Z,7.60
2019-04-16T15:07:33.473Z,7.60
2019-04-16T15:10:06.405Z,7.60
2019-04-16T15:12:36.619Z,7.50
2019-04-16T15:15:19.389Z,7.50
2019-04-16T15:18:05.728Z,7.60
2019-04-16T15:20:38.577Z,7.60
2019-04-16T15:23:14.832Z,7.60
2019-04-16T15:25:50.964Z,7.60
2019-04-16T15:28:27.131Z,7.60
2019-04-16T15:31:00.714Z,7.60
2019-04-16T15:33:38.991Z,7.70
2019-04-16T15:36:10.096Z,7.70
2019-04-16T15:38:49.344Z,7.70
2019-04-16T15:41:19.566Z,7.70
2019-04-16T15:43:58.556Z,7.80
2019-04-16T15:46:45.365Z,7.80
2019-04-16T15:49:15.486Z,7.80
2019-04-16T15:51:50.852Z,7.80
2019-04-16T15:54:36.572Z,7.80
2019-04-16T15:57:23.313Z,7.80
2019-04-16T15:59:53.510Z,7.90
2019-04-16T16:02:39.948Z,7.80
2019-04-16T16:05:16.464Z,7.80
2019-04-16T16:07:46.716Z,7.80
2019-04-16T16:10:16.907Z,7.80
2019-04-16T16:12:45.486Z,7.80
2019-04-16T16:15:14.346Z,7.80
2019-04-16T16:17:42.935Z,7.80
2019-04-16T16:20:12.634Z,7.80
2019-04-16T16:22:41.190Z,7.70
2019-04-16T16:25:10.172Z,7.80
2019-04-16T16:27:41.682Z,7.80
2019-04-16T16:30:12.023Z,7.70
2019-04-16T16:32:39.522Z,7.70
2019-04-16T16:35:08.251Z,7.70
2019-04-16T16:37:37.575Z,7.70
2019-04-16T16:40:07.481Z,7.60
2019-04-16T16:42:36.031Z,7.70
2019-04-16T16:45:05.995Z,7.60
2019-04-16T16:47:39.715Z,7.60
2019-04-16T16:50:10.437Z,7.50
2019-04-16T16:52:52.394Z,7.50
2019-04-16T16:55:31.599Z,7.50
2019-04-16T16:58:01.913Z,7.40
2019-04-16T17:00:50.387Z,7.40
2019-04-16T17:03:20.631Z,7.40
2019-04-16T17:05:50.425Z,7.40
2019-04-16T17:08:18.965Z,7.40
2019-04-16T17:10:47.601Z,7.30
2019-04-16T17:13:20.787Z,7.20
2019-04-16T17:15:46.385Z,7.20
2019-04-16T17:18:15.012Z,7.20
2019-04-16T17:20:43.599Z,7.20
2019-04-16T17:23:16.428Z,7.30
2019-04-16T17:25:42.423Z,7.30
2019-04-16T17:28:11.224Z,7.30
2019-04-16T17:30:39.842Z,7.30
2019-04-16T17:33:08.621Z,7.30
2019-04-16T17:35:37.245Z,7.30
2019-04-16T17:38:06.363Z,7.30
2019-04-16T17:40:58.106Z,7.30
2019-04-16T17:43:41.694Z,7.40
2019-04-16T17:46:24.461Z,7.30
2019-04-16T17:48:58.335Z,7.30
2019-04-16T17:51:44.918Z,7.30
2019-04-16T17:54:20.834Z,7.30
2019-04-16T17:56:55.426Z,7.30
2019-04-16T17:59:29.512Z,7.30
2019-04-16T18:02:00.425Z,7.40
2019-04-16T18:04:33.280Z,7.40
2019-04-16T18:07:15.737Z,7.40
2019-04-16T18:09:48.776Z,7.40
2019-04-16T18:12:37.092Z,7.40
2019-04-16T18:15:09.649Z,7.40
2019-04-16T18:17:47.213Z,7.40
2019-04-16T18:20:17.906Z,7.30
2019-04-16T18:22:57.148Z,7.20
2019-04-16T18:25:33.259Z,7.10
2019-04-16T18:28:09.327Z,7.10
2019-04-16T18:30:42.565Z,7.20
2019-04-16T18:33:21.829Z,7.20
2019-04-16T18:35:54.728Z,7.30
2019-04-16T18:38:33.864Z,7.40
2019-04-16T18:41:10.191Z,7.40
2019-04-16T18:43:56.540Z,7.40
2019-04-16T18:46:35.754Z,7.30
2019-04-16T18:49:06.331Z,7.30
2019-04-16T18:51:34.895Z,7.30
2019-04-16T18:54:03.483Z,7.20
2019-04-16T18:56:32.137Z,7.20
2019-04-16T18:59:00.939Z,7.20
2019-04-16T19:01:32.609Z,7.20
2019-04-16T19:04:01.905Z,7.20
2019-04-16T19:06:30.474Z,7.10
2019-04-16T19:09:01.826Z,7.10
2019-04-16T19:11:30.391Z,7.10
2019-04-16T19:13:58.935Z,7.10
2019-04-16T19:16:27.424Z,7.00
2019-04-16T19:18:55.999Z,7.00
2019-04-16T19:21:24.529Z,7.10
2019-04-16T19:23:53.138Z,7.10
2019-04-16T19:26:21.675Z,7.10
2019-04-16T19:28:50.139Z,7.10
2019-04-16T19:31:22.788Z,7.00
2019-04-16T19:33:50.328Z,7.10
2019-04-16T19:36:19.765Z,7.10
2019-04-16T19:38:49.194Z,7.10
2019-04-16T19:41:23.135Z,7.10
2019-04-16T19:43:48.090Z,7.10
2019-04-16T19:46:16.685Z,7.10
2019-04-16T19:48:45.214Z,7.20
2019-04-16T19:51:13.930Z,7.20
2019-04-16T19:53:44.575Z,7.20
2019-04-16T19:56:15.567Z,7.20
2019-04-16T19:58:44.221Z,7.20
2019-04-16T20:01:13.279Z,7.20
2019-04-16T20:03:43.559Z,7.20
2019-04-16T20:06:12.020Z,7.20
2019-04-16T20:08:40.508Z,7.20
2019-04-16T20:11:09.015Z,7.20
2019-04-16T20:13:37.597Z,7.20
2019-04-16T20:16:06.212Z,7.20
2019-04-16T20:18:49.961Z,7.20
2019-04-16T20:21:05.002Z,7.20
2019-04-16T20:23:33.573Z,7.20
2019-04-16T20:26:02.073Z,7.20
2019-04-16T20:28:30.619Z,7.20
2019-04-16T20:31:03.206Z,7.20
2019-04-16T20:33:29.415Z,7.20
2019-04-16T20:35:57.960Z,7.10
2019-04-16T20:38:29.295Z,7.10
2019-04-16T20:40:56.880Z,7.20
2019-04-16T20:43:25.421Z,7.20
2019-04-16T20:45:54.015Z,7.20
2019-04-16T20:48:22.565Z,7.20
2019-04-16T20:50:53.028Z,7.20
2019-04-16T20:53:21.383Z,7.20
2019-04-16T20:55:49.864Z,7.20
2019-04-16T20:58:18.396Z,7.20
2019-04-16T21:00:48.644Z,7.20
2019-04-16T21:03:22.195Z,7.20
2019-04-16T21:05:57.852Z,7.20
2019-04-16T21:08:24.062Z,7.20
2019-04-16T21:10:48.169Z,7.30
2019-04-16T21:13:16.858Z,7.30
2019-04-16T21:15:45.481Z,7.30
2019-04-16T21:18:14.063Z,7.30
2019-04-16T21:20:42.632Z,7.30
2019-04-16T21:23:11.225Z,7.30
2019-04-16T21:25:42.741Z,7.30
2019-04-16T21:28:29.534Z,7.20
2019-04-16T21:31:02.660Z,7.20
2019-04-16T21:33:35.626Z,7.20
2019-04-16T21:36:21.844Z,7.20
2019-04-16T21:39:08.392Z,7.10
2019-04-16T21:41:36.932Z,7.10
2019-04-16T21:44:05.462Z,7.10
2019-04-16T21:46:33.992Z,7.10
2019-04-16T21:49:02.582Z,7.10
2019-04-16T21:51:31.156Z,7.10
2019-04-16T21:53:59.749Z,7.00
2019-04-16T21:56:28.298Z,7.00
2019-04-16T21:58:56.768Z,6.90
2019-04-16T22:01:26.968Z,6.90
2019-04-16T22:04:02.972Z,6.90
2019-04-16T22:06:31.757Z,6.80
2019-04-16T22:09:03.297Z,6.80
2019-04-16T22:11:30.502Z,6.80
2019-04-16T22:13:59.652Z,6.80
2019-04-16T22:16:29.891Z,6.80
2019-04-16T22:18:58.921Z,6.80
2019-04-16T22:21:27.487Z,6.80
2019-04-16T22:23:56.232Z,6.80
2019-04-16T22:26:24.836Z,6.80
2019-04-16T22:28:53.328Z,6.80
2019-04-16T22:31:23.969Z,6.80
2019-04-16T22:33:52.107Z,6.80
2019-04-16T22:36:20.647Z,6.80
2019-04-16T22:38:50.817Z,6.80
2019-04-16T22:41:23.561Z,6.80
2019-04-16T22:43:52.888Z,6.80
2019-04-16T22:46:25.929Z,6.80
2019-04-16T22:48:55.697Z,6.90
2019-04-16T22:51:25.882Z,6.90
2019-04-16T22:53:54.646Z,6.90
2019-04-16T22:56:28.129Z,6.90
2019-04-16T22:58:55.262Z,6.90
2019-04-16T23:01:28.026Z,6.90
2019-04-16T23:03:56.671Z,6.90
2019-04-16T23:06:25.398Z,6.90
2019-04-16T23:08:53.927Z,6.90
2019-04-16T23:11:23.748Z,6.90
2019-04-16T23:13:52.636Z,6.90
2019-04-16T23:16:21.200Z,6.90
2019-04-16T23:18:50.117Z,6.80
2019-04-16T23:21:18.740Z,6.70
2019-04-16T23:23:47.740Z,6.70
2019-04-16T23:26:17.489Z,6.60
2019-04-16T23:28:46.080Z,6.60
2019-04-16T23:31:14.652Z,6.60
2019-04-16T23:33:43.220Z,6.50
2019-04-16T23:36:15.433Z,6.40
2019-04-16T23:38:41.996Z,6.40
2019-04-16T23:41:15.325Z,6.30
2019-04-16T23:43:45.058Z,6.30
2019-04-16T23:46:27.051Z,6.30
2019-04-16T23:49:06.172Z,6.30
2019-04-16T23:51:39.209Z,6.20
2019-04-16T23:54:12.779Z,6.20
2019-04-16T23:56:43.112Z,6.30
2019-04-16T23:59:19.115Z,6.20
